createdAt,value
2022-10-26T00:00:17.399Z,12.95
2022-10-26T00:03:14.584Z,13.08
2022-10-26T00:06:13.055Z,13.06
2022-10-26T00:09:10.389Z,12.90
2022-10-26T00:12:07.278Z,12.83
2022-10-26T00:15:04.485Z,13.07
2022-10-26T00:18:01.185Z,13.11
2022-10-26T00:21:03.783Z,13.03
2022-10-26T00:24:01.107Z,12.78
2022-10-26T00:26:58.349Z,12.70
2022-10-26T00:29:55.184Z,12.94
2022-10-26T00:32:52.120Z,13.05
2022-10-26T00:35:53.163Z,13.30
2022-10-26T00:38:51.085Z,13.03
2022-10-26T00:41:48.285Z,12.68
2022-10-26T00:44:47.857Z,12.59
2022-10-26T00:47:47.331Z,12.58
2022-10-26T00:50:44.475Z,12.58
2022-10-26T00:53:41.448Z,12.50
2022-10-26T00:56:38.453Z,12.43
2022-10-26T00:59:35.182Z,12.39
2022-10-26T01:02:32.145Z,12.26
2022-10-26T01:05:29.334Z,12.08
2022-10-26T01:08:28.231Z,11.88
2022-10-26T01:11:25.080Z,12.01
2022-10-26T01:14:22.568Z,12.13
2022-10-26T01:17:32.483Z,11.99
2022-10-26T01:20:46.631Z,12.08
2022-10-26T01:24:05.023Z,12.08
2022-10-26T01:27:07.991Z,12.23
2022-10-26T01:30:22.037Z,12.14
2022-10-26T01:33:31.161Z,12.12
2022-10-26T01:36:40.064Z,12.05
2022-10-26T01:39:40.095Z,12.08
2022-10-26T01:42:37.516Z,12.22
2022-10-26T01:45:34.251Z,12.25
2022-10-26T01:48:31.240Z,12.11
2022-10-26T01:51:28.872Z,11.99
2022-10-26T01:54:26.303Z,12.00
2022-10-26T01:57:23.049Z,12.01
2022-10-26T02:00:20.229Z,11.90
2022-10-26T02:03:28.802Z,11.74
2022-10-26T02:06:55.030Z,11.69
2022-10-26T02:10:14.675Z,11.67
2022-10-26T02:13:49.233Z,11.69
2022-10-26T02:16:53.675Z,11.60
2022-10-26T02:19:57.939Z,11.58
2022-10-26T02:22:55.802Z,11.66
2022-10-26T02:25:56.619Z,11.59
2022-10-26T02:28:55.101Z,11.47
2022-10-26T02:31:52.540Z,11.48
2022-10-26T02:34:49.498Z,11.53
2022-10-26T02:37:47.167Z,11.51
2022-10-26T02:40:44.404Z,11.65
2022-10-26T02:43:47.787Z,11.56
2022-10-26T02:46:45.195Z,11.56
2022-10-26T02:49:42.719Z,11.58
2022-10-26T02:52:51.830Z,11.58
2022-10-26T02:55:49.845Z,11.49
2022-10-26T02:58:50.021Z,11.41
2022-10-26T03:01:47.445Z,11.36
2022-10-26T03:04:44.532Z,11.42
2022-10-26T03:07:41.302Z,11.57
2022-10-26T03:10:43.648Z,11.62
2022-10-26T03:13:40.241Z,11.63
2022-10-26T03:16:37.677Z,11.60
2022-10-26T03:19:34.554Z,11.44
2022-10-26T03:22:31.350Z,11.30
2022-10-26T03:25:28.276Z,11.29
2022-10-26T03:28:25.778Z,11.38
2022-10-26T03:31:22.643Z,11.39
2022-10-26T03:34:19.791Z,11.34
2022-10-26T03:37:16.575Z,11.32
2022-10-26T03:40:13.637Z,11.30
2022-10-26T03:43:10.342Z,11.12
2022-10-26T03:46:07.425Z,11.04
2022-10-26T03:49:04.617Z,11.02
2022-10-26T03:52:01.662Z,10.92
2022-10-26T03:54:58.253Z,10.87
2022-10-26T03:57:55.063Z,11.09
2022-10-26T04:00:52.425Z,11.17
2022-10-26T04:03:49.370Z,11.16
2022-10-26T04:09:48.509Z,11.02
2022-10-26T04:12:45.573Z,11.21
2022-10-26T04:15:43.322Z,11.39
2022-10-26T04:18:40.361Z,11.59
2022-10-26T04:21:37.313Z,11.63
2022-10-26T04:24:34.708Z,11.55
2022-10-26T04:27:31.626Z,11.39
2022-10-26T04:30:28.435Z,11.41
2022-10-26T04:33:25.509Z,11.32
2022-10-26T04:36:22.436Z,11.22
2022-10-26T04:39:19.098Z,11.12
2022-10-26T04:42:16.511Z,11.01
2022-10-26T04:45:14.896Z,10.84
2022-10-26T04:48:13.064Z,10.78
2022-10-26T04:51:10.413Z,10.81
2022-10-26T04:54:07.529Z,10.82
2022-10-26T04:57:04.200Z,10.77
2022-10-26T05:00:02.307Z,10.75
2022-10-26T05:03:03.349Z,10.65
2022-10-26T05:06:00.811Z,10.67
2022-10-26T05:08:57.588Z,10.77
2022-10-26T05:11:54.457Z,10.73
2022-10-26T05:14:51.767Z,10.66
2022-10-26T05:17:55.331Z,10.74
2022-10-26T05:20:53.093Z,10.69
2022-10-26T05:23:55.459Z,10.67
2022-10-26T05:26:52.304Z,10.82
2022-10-26T05:29:49.784Z,10.84
2022-10-26T05:32:53.928Z,10.98
2022-10-26T05:35:54.403Z,11.24
2022-10-26T05:38:51.575Z,11.46
2022-10-26T05:41:48.533Z,11.64
2022-10-26T05:44:45.452Z,11.68
2022-10-26T05:47:42.956Z,11.74
2022-10-26T05:50:40.254Z,11.83
2022-10-26T05:53:37.655Z,11.91
2022-10-26T05:56:39.405Z,11.86
2022-10-26T05:59:37.200Z,11.76
2022-10-26T06:03:06.633Z,11.57
2022-10-26T06:06:05.371Z,11.47
2022-10-26T06:09:04.684Z,11.40
2022-10-26T06:12:02.050Z,11.28
2022-10-26T06:14:59.953Z,11.39
2022-10-26T06:17:57.709Z,11.49
2022-10-26T06:21:27.226Z,11.59
2022-10-26T06:24:31.008Z,11.68
2022-10-26T06:27:56.831Z,11.67
2022-10-26T06:30:53.549Z,11.62
2022-10-26T06:33:51.916Z,11.52
2022-10-26T06:36:48.587Z,11.43
2022-10-26T06:39:48.959Z,11.43
2022-10-26T06:42:48.793Z,11.36
2022-10-26T06:45:45.857Z,11.35
2022-10-26T06:48:51.757Z,11.45
2022-10-26T06:52:00.168Z,11.53
2022-10-26T06:54:57.685Z,11.55
2022-10-26T06:57:54.644Z,11.51
2022-10-26T07:00:53.342Z,11.55
2022-10-26T07:03:50.527Z,11.55
2022-10-26T07:06:47.384Z,11.55
2022-10-26T07:09:44.305Z,11.47
2022-10-26T07:12:41.826Z,11.42
2022-10-26T07:15:39.016Z,11.48
2022-10-26T07:18:36.336Z,11.58
2022-10-26T07:21:33.646Z,11.73
2022-10-26T07:24:30.973Z,11.95
2022-10-26T07:27:27.601Z,12.03
2022-10-26T07:30:25.243Z,11.98
2022-10-26T07:33:22.683Z,11.93
2022-10-26T07:36:19.804Z,11.85
2022-10-26T07:39:16.781Z,11.93
2022-10-26T07:42:14.705Z,12.06
2022-10-26T07:45:11.831Z,12.29
2022-10-26T07:48:08.696Z,12.44
2022-10-26T07:51:05.738Z,12.51
2022-10-26T07:54:02.895Z,12.60
2022-10-26T07:56:59.820Z,12.70
2022-10-26T07:59:56.735Z,12.78
2022-10-26T08:02:54.286Z,12.74
2022-10-26T08:05:55.783Z,12.67
2022-10-26T08:08:52.776Z,12.73
2022-10-26T08:11:49.591Z,12.82
2022-10-26T08:14:46.484Z,12.75
2022-10-26T08:17:44.056Z,12.72
2022-10-26T08:20:41.524Z,12.74
2022-10-26T08:23:39.058Z,12.86
2022-10-26T08:26:37.014Z,13.03
2022-10-26T08:29:33.580Z,13.12
2022-10-26T08:32:30.485Z,13.24
2022-10-26T08:35:28.273Z,13.26
2022-10-26T08:38:25.700Z,13.38
2022-10-26T08:41:28.719Z,13.54
2022-10-26T08:44:27.219Z,13.73
2022-10-26T08:47:30.964Z,13.81
2022-10-26T08:50:42.764Z,13.91
2022-10-26T08:54:00.980Z,13.98
2022-10-26T08:56:58.890Z,14.16
2022-10-26T09:00:04.808Z,14.41
2022-10-26T09:03:01.455Z,14.54
2022-10-26T09:06:14.652Z,14.81
2022-10-26T09:09:18.468Z,14.91
2022-10-26T09:12:18.741Z,14.75
2022-10-26T09:15:21.819Z,14.78
2022-10-26T09:18:21.685Z,14.94
2022-10-26T09:21:54.057Z,15.22
2022-10-26T09:24:55.501Z,15.23
2022-10-26T09:27:57.639Z,15.19
2022-10-26T09:30:54.897Z,15.22
2022-10-26T09:33:51.741Z,15.15
2022-10-26T09:36:53.161Z,15.11
2022-10-26T09:40:13.577Z,15.33
2022-10-26T09:43:12.858Z,15.48
2022-10-26T09:46:13.482Z,15.61
2022-10-26T09:49:11.248Z,15.74
2022-10-26T09:52:08.669Z,16.09
2022-10-26T09:55:06.017Z,16.22
2022-10-26T09:58:03.961Z,16.15
2022-10-26T10:01:00.753Z,16.02
2022-10-26T10:04:16.865Z,16.02
2022-10-26T10:07:14.184Z,16.35
2022-10-26T10:10:21.758Z,16.44
2022-10-26T10:13:21.004Z,16.83
2022-10-26T10:16:21.686Z,17.03
2022-10-26T10:19:29.564Z,17.04
2022-10-26T10:22:26.848Z,17.04
2022-10-26T10:25:37.454Z,17.01
2022-10-26T10:28:35.036Z,17.18
2022-10-26T10:31:32.958Z,17.38
2022-10-26T10:34:33.372Z,17.41
2022-10-26T10:37:42.917Z,17.53
2022-10-26T10:40:39.985Z,18.03
2022-10-26T10:43:36.444Z,17.83
2022-10-26T10:46:33.931Z,17.91
2022-10-26T10:49:30.883Z,18.03
2022-10-26T10:52:35.034Z,18.32
2022-10-26T10:55:32.070Z,18.42
2022-10-26T10:59:16.892Z,19.09
2022-10-26T11:02:29.008Z,19.18
2022-10-26T11:05:40.799Z,19.02
2022-10-26T11:08:43.755Z,18.87
2022-10-26T11:11:45.616Z,19.00
2022-10-26T11:14:49.539Z,18.89
2022-10-26T11:18:00.735Z,19.05
2022-10-26T11:21:02.582Z,19.26
2022-10-26T11:24:11.182Z,19.52
2022-10-26T11:27:13.267Z,19.50
2022-10-26T11:30:18.364Z,19.86
2022-10-26T11:33:22.349Z,20.20
2022-10-26T11:36:22.012Z,20.67
2022-10-26T11:39:34.740Z,20.49
2022-10-26T11:42:45.047Z,20.55
2022-10-26T11:45:43.114Z,20.70
2022-10-26T11:49:23.772Z,20.55
2022-10-26T11:52:39.962Z,20.94
2022-10-26T11:55:36.677Z,20.86
2022-10-26T11:58:33.605Z,20.55
2022-10-26T12:01:31.062Z,20.84
2022-10-26T12:04:29.991Z,20.90
2022-10-26T12:07:29.542Z,20.85
2022-10-26T12:10:29.195Z,21.15
2022-10-26T12:13:56.805Z,21.72
2022-10-26T12:17:06.631Z,21.36
2022-10-26T12:20:06.535Z,21.06
2022-10-26T12:23:04.455Z,21.20
2022-10-26T12:26:23.432Z,21.34
2022-10-26T12:29:36.836Z,21.46
2022-10-26T12:32:34.075Z,21.26
2022-10-26T12:35:35.490Z,22.08
2022-10-26T12:38:33.794Z,23.91
2022-10-26T12:41:31.239Z,23.24
2022-10-26T12:44:43.499Z,22.13
2022-10-26T12:47:41.163Z,21.45
2022-10-26T12:50:38.069Z,21.09
2022-10-26T12:53:35.000Z,20.84
2022-10-26T12:56:52.814Z,21.10
2022-10-26T13:00:02.259Z,20.98
2022-10-26T13:03:08.806Z,21.01
2022-10-26T13:06:28.967Z,21.04
2022-10-26T13:09:30.316Z,20.87
2022-10-26T13:12:28.455Z,20.93
2022-10-26T13:15:41.290Z,21.03
2022-10-26T13:18:49.357Z,21.70
2022-10-26T13:21:46.938Z,22.10
2022-10-26T13:24:48.834Z,22.69
2022-10-26T13:27:45.762Z,23.04
2022-10-26T13:30:44.818Z,23.17
2022-10-26T13:33:42.399Z,23.01
2022-10-26T13:36:50.418Z,22.59
2022-10-26T13:39:48.495Z,22.06
2022-10-26T13:42:47.016Z,22.09
2022-10-26T13:45:56.999Z,21.89
2022-10-26T13:49:05.075Z,21.73
2022-10-26T13:52:03.011Z,21.53
2022-10-26T13:55:02.089Z,21.39
2022-10-26T13:58:17.440Z,21.29
2022-10-26T14:01:21.666Z,21.21
2022-10-26T14:04:26.857Z,21.26
2022-10-26T14:07:25.846Z,21.22
2022-10-26T14:10:29.985Z,21.30
2022-10-26T14:13:28.017Z,21.34
2022-10-26T14:16:26.896Z,21.20
2022-10-26T14:19:42.533Z,20.65
2022-10-26T14:22:39.835Z,20.83
2022-10-26T14:25:42.515Z,20.99
2022-10-26T14:29:02.192Z,21.13
2022-10-26T14:31:58.734Z,21.41
2022-10-26T14:34:55.856Z,21.73
2022-10-26T14:37:55.486Z,21.79
2022-10-26T14:40:55.203Z,21.49
2022-10-26T14:43:51.945Z,21.31
2022-10-26T14:46:49.398Z,21.27
2022-10-26T14:49:46.791Z,21.05
2022-10-26T14:52:53.119Z,21.11
2022-10-26T14:55:50.909Z,21.09
2022-10-26T14:58:48.038Z,21.06
2022-10-26T15:02:05.971Z,21.23
2022-10-26T15:05:16.168Z,21.18
2022-10-26T15:08:55.974Z,21.16
2022-10-26T15:11:54.198Z,21.14
2022-10-26T15:14:51.403Z,20.86
2022-10-26T15:17:58.166Z,20.87
2022-10-26T15:20:55.252Z,21.07
2022-10-26T15:23:52.191Z,20.93
2022-10-26T15:26:49.079Z,21.05
2022-10-26T15:29:46.978Z,21.15
2022-10-26T15:32:43.864Z,21.13
2022-10-26T15:35:40.850Z,20.96
2022-10-26T15:38:38.274Z,20.92
2022-10-26T15:41:41.499Z,20.83
2022-10-26T15:44:40.039Z,20.86
2022-10-26T15:47:37.252Z,20.71
2022-10-26T15:50:39.098Z,20.70
2022-10-26T15:53:38.486Z,20.74
2022-10-26T15:56:35.949Z,20.79
2022-10-26T15:59:32.903Z,20.81
2022-10-26T16:02:29.956Z,20.76
2022-10-26T16:05:27.192Z,20.74
2022-10-26T16:08:23.870Z,20.65
2022-10-26T16:11:21.122Z,20.58
2022-10-26T16:14:17.875Z,20.49
2022-10-26T16:17:14.963Z,20.39
2022-10-26T16:20:16.678Z,20.46
2022-10-26T16:23:13.971Z,20.49
2022-10-26T16:26:11.178Z,20.43
2022-10-26T16:29:08.321Z,20.27
2022-10-26T16:32:05.298Z,20.13
2022-10-26T16:35:02.304Z,20.01
2022-10-26T16:37:58.819Z,19.89
2022-10-26T16:41:09.388Z,19.95
2022-10-26T16:44:06.124Z,19.95
2022-10-26T16:47:02.881Z,19.97
2022-10-26T16:49:59.846Z,19.97
2022-10-26T16:52:56.961Z,19.84
2022-10-26T16:55:54.047Z,19.92
2022-10-26T16:58:51.351Z,19.95
2022-10-26T17:01:48.345Z,19.98
2022-10-26T17:04:44.847Z,19.93
2022-10-26T17:07:42.251Z,19.94
2022-10-26T17:10:38.858Z,19.96
2022-10-26T17:13:39.750Z,19.93
2022-10-26T17:16:36.780Z,19.81
2022-10-26T17:19:34.294Z,19.74
2022-10-26T17:22:31.370Z,19.72
2022-10-26T17:25:28.239Z,19.66
2022-10-26T17:28:25.235Z,19.68
2022-10-26T17:31:22.613Z,19.67
2022-10-26T17:34:20.328Z,19.63
2022-10-26T17:37:17.556Z,19.60
2022-10-26T17:40:15.023Z,19.63
2022-10-26T17:43:11.812Z,19.60
2022-10-26T17:46:24.041Z,19.54
2022-10-26T17:49:24.821Z,19.45
2022-10-26T17:52:25.284Z,19.24
2022-10-26T17:55:22.011Z,19.13
2022-10-26T17:58:18.805Z,19.01
2022-10-26T18:01:16.565Z,19.08
2022-10-26T18:04:14.183Z,18.99
2022-10-26T18:07:11.039Z,19.00
2022-10-26T18:10:26.293Z,19.03
2022-10-26T18:13:26.829Z,18.94
2022-10-26T18:16:25.071Z,18.85
2022-10-26T18:19:22.229Z,18.70
2022-10-26T18:22:19.122Z,18.56
2022-10-26T18:25:16.134Z,18.43
2022-10-26T18:28:13.156Z,18.23
2022-10-26T18:31:11.426Z,18.08
2022-10-26T18:34:09.704Z,18.25
2022-10-26T18:37:07.563Z,18.41
2022-10-26T18:40:04.825Z,18.59
2022-10-26T18:43:02.218Z,18.55
2022-10-26T18:46:05.462Z,18.49
2022-10-26T18:49:02.288Z,18.33
2022-10-26T18:51:59.945Z,18.08
2022-10-26T18:54:57.136Z,17.94
2022-10-26T18:57:54.112Z,17.79
2022-10-26T19:00:53.363Z,17.71
2022-10-26T19:04:00.275Z,17.66
2022-10-26T19:06:57.401Z,17.64
2022-10-26T19:09:54.246Z,17.51
2022-10-26T19:12:51.655Z,17.55
2022-10-26T19:15:49.183Z,17.56
2022-10-26T19:18:46.131Z,17.44
2022-10-26T19:21:43.004Z,17.45
2022-10-26T19:24:40.502Z,17.33
2022-10-26T19:27:37.349Z,17.38
2022-10-26T19:30:34.291Z,17.25
2022-10-26T19:33:31.252Z,17.16
2022-10-26T19:36:28.623Z,17.06
2022-10-26T19:39:26.468Z,17.03
2022-10-26T19:42:23.402Z,16.94
2022-10-26T19:45:20.203Z,16.82
2022-10-26T19:48:17.160Z,16.81
2022-10-26T19:51:14.092Z,16.82
2022-10-26T19:54:11.193Z,16.81
2022-10-26T19:57:08.383Z,16.76
2022-10-26T20:00:06.232Z,16.79
2022-10-26T20:03:10.393Z,16.77
2022-10-26T20:06:11.263Z,16.83
2022-10-26T20:09:08.442Z,17.04
2022-10-26T20:12:05.685Z,17.35
2022-10-26T20:15:03.351Z,17.30
2022-10-26T20:18:00.452Z,17.36
2022-10-26T20:20:57.277Z,17.32
2022-10-26T20:23:54.107Z,17.44
2022-10-26T20:26:51.332Z,17.29
2022-10-26T20:29:48.377Z,17.04
2022-10-26T20:32:45.251Z,16.84
2022-10-26T20:35:42.259Z,16.78
2022-10-26T20:38:39.387Z,16.99
2022-10-26T20:41:42.090Z,16.96
2022-10-26T20:44:41.591Z,16.92
2022-10-26T20:47:38.660Z,17.02
2022-10-26T20:50:36.643Z,17.12
2022-10-26T20:53:35.874Z,17.13
2022-10-26T20:56:34.330Z,17.04
2022-10-26T20:59:45.664Z,17.04
2022-10-26T21:02:43.659Z,17.00
2022-10-26T21:05:41.885Z,17.01
2022-10-26T21:08:39.545Z,16.89
2022-10-26T21:11:36.482Z,16.86
2022-10-26T21:14:40.521Z,16.82
2022-10-26T21:17:37.462Z,16.85
2022-10-26T21:20:34.462Z,16.96
2022-10-26T21:23:38.066Z,17.15
2022-10-26T21:26:35.021Z,16.95
2022-10-26T21:29:32.147Z,16.79
2022-10-26T21:32:28.970Z,16.68
2022-10-26T21:35:26.217Z,16.63
2022-10-26T21:38:23.131Z,16.54
2022-10-26T21:41:20.793Z,16.55
2022-10-26T21:44:40.334Z,16.67
2022-10-26T21:47:35.391Z,16.62
2022-10-26T21:50:32.179Z,16.56
2022-10-26T21:53:29.387Z,16.52
2022-10-26T21:56:26.528Z,16.46
2022-10-26T21:59:23.308Z,16.40
2022-10-26T22:02:20.369Z,16.33
2022-10-26T22:05:17.469Z,16.34
2022-10-26T22:08:14.419Z,16.30
2022-10-26T22:11:15.646Z,16.17
2022-10-26T22:14:13.899Z,16.13
2022-10-26T22:17:11.250Z,16.08
2022-10-26T22:20:09.336Z,16.19
2022-10-26T22:23:06.362Z,16.34
2022-10-26T22:26:07.884Z,16.47
2022-10-26T22:29:05.669Z,16.50
2022-10-26T22:32:02.336Z,16.54
2022-10-26T22:35:10.771Z,16.51
2022-10-26T22:38:08.582Z,16.47
2022-10-26T22:41:05.323Z,16.48
2022-10-26T22:44:02.727Z,16.35
2022-10-26T22:46:59.649Z,16.34
2022-10-26T22:49:56.475Z,16.31
2022-10-26T22:52:53.805Z,16.24
2022-10-26T22:55:51.670Z,16.23
2022-10-26T22:58:48.181Z,16.28
2022-10-26T23:01:46.134Z,16.26
2022-10-26T23:04:43.363Z,16.39
2022-10-26T23:07:40.474Z,16.66
2022-10-26T23:10:37.366Z,16.85
2022-10-26T23:13:34.397Z,17.21
2022-10-26T23:16:31.337Z,17.28
2022-10-26T23:19:28.435Z,17.18
2022-10-26T23:22:25.292Z,17.35
2022-10-26T23:25:22.115Z,17.49
2022-10-26T23:28:19.601Z,17.37
2022-10-26T23:31:21.025Z,17.05
2022-10-26T23:34:18.513Z,16.83
2022-10-26T23:37:15.721Z,16.98
2022-10-26T23:40:12.563Z,16.77
2022-10-26T23:43:09.306Z,16.39
2022-10-26T23:46:06.331Z,16.47
2022-10-26T23:49:03.060Z,16.43
2022-10-26T23:52:00.580Z,16.77
2022-10-26T23:54:57.413Z,16.60
2022-10-26T23:57:54.227Z,16.25
